Time;durP1;ratioP1;P1;durP2;ratioP2;P2;SDS_P1;SDS_P2;PMS_P1;PMS_P2;Temp;Humidity;BMP_temperature;BMP_pressure;BME280_temperature;BME280_humidity;BME280_pressure;Samples;Min_cycle;Max_cycle;Signal;HPM_P1;HPM_P2
2023/04/13 00:01:35;;;;;;;2.35;0.85;;;;;;;;;;4998958;28;20077;-71
2023/04/13 00:04:03;;;;;;;1.00;0.55;;;;;;;;;;5001669;28;20053;-75
2023/04/13 00:06:30;;;;;;;1.15;0.57;;;;;;;;;;5031493;28;20052;-73
2023/04/13 00:09:03;;;;;;;2.42;0.68;;;;;;;;;;5016140;28;20106;-76
2023/04/13 00:11:30;;;;;;;0.95;0.60;;;;;;;;;;5004690;28;20057;-74
2023/04/13 00:13:57;;;;;;;1.20;0.50;;;;;;;;;;5041428;28;20061;-75
2023/04/13 00:16:25;;;;;;;0.55;0.47;;;;;;;;;;5036178;28;20135;-76
2023/04/13 00:18:52;;;;;;;2.55;0.73;;;;;;;;;;5023060;28;20052;-74
2023/04/13 00:21:19;;;;;;;2.65;0.68;;;;;;;;;;5012789;28;20209;-71
2023/04/13 00:23:48;;;;;;;1.42;0.60;;;;;;;;;;5032551;28;20067;-73
2023/04/13 00:26:19;;;;;;;1.35;0.60;;;;;;;;;;5028752;28;20124;-73
2023/04/13 00:28:46;;;;;;;1.30;0.73;;;;;;;;;;5020900;28;20135;-71
2023/04/13 00:31:12;;;;;;;1.05;0.70;;;;;;;;;;5012644;28;20086;-71
2023/04/13 00:33:40;;;;;;;0.80;0.60;;;;;;;;;;5016464;28;20060;-72
2023/04/13 00:36:07;;;;;;;2.65;0.60;;;;;;;;;;5020196;28;20052;-73
2023/04/13 00:38:34;;;;;;;4.20;0.80;;;;;;;;;;5043562;28;20059;-73
2023/04/13 00:41:01;;;;;;;1.50;0.65;;;;;;;;;;5036957;28;20044;-75
2023/04/13 00:43:29;;;;;;;0.82;0.50;;;;;;;;;;5025644;28;20048;-74
2023/04/13 00:45:56;;;;;;;0.55;0.43;;;;;;;;;;5037006;28;20049;-73
2023/04/13 00:48:23;;;;;;;2.40;0.80;;;;;;;;;;5029634;28;20053;-71
2023/04/13 00:50:50;;;;;;;1.23;0.70;;;;;;;;;;5015079;28;20122;-72
2023/04/13 00:53:17;;;;;;;1.08;0.50;;;;;;;;;;5000692;28;20136;-74
2023/04/13 00:55:44;;;;;;;1.88;0.68;;;;;;;;;;5036288;28;20056;-74
2023/04/13 00:58:12;;;;;;;1.25;0.70;;;;;;;;;;5032781;28;20056;-75
2023/04/13 01:00:41;;;;;;;0.93;0.70;;;;;;;;;;5018030;28;20063;-73
2023/04/13 01:03:08;;;;;;;4.00;0.75;;;;;;;;;;5002331;28;20053;-75
2023/04/13 01:05:38;;;;;;;1.58;0.70;;;;;;;;;;5032618;28;20151;-74
2023/04/13 01:08:11;;;;;;;3.30;0.82;;;;;;;;;;5030085;28;20258;-76
2023/04/13 01:10:43;;;;;;;5.22;0.88;;;;;;;;;;5016849;28;20144;-74
2023/04/13 01:13:14;;;;;;;2.20;0.60;;;;;;;;;;5042304;28;20056;-75
2023/04/13 01:15:45;;;;;;;3.17;0.90;;;;;;;;;;5006821;28;20075;-75
2023/04/13 01:18:14;;;;;;;1.00;0.63;;;;;;;;;;5004185;28;20049;-74
2023/04/13 01:20:42;;;;;;;1.20;0.63;;;;;;;;;;5015400;28;20068;-74
2023/04/13 01:23:11;;;;;;;0.65;0.50;;;;;;;;;;5011934;28;20053;-73
2023/04/13 01:25:37;;;;;;;;;;;;;;;;;;5014693;28;20056;-73
2023/04/13 01:28:07;;;;;;;1.90;0.68;;;;;;;;;;5006928;28;20024;-73
2023/04/13 01:30:35;;;;;;;3.65;0.68;;;;;;;;;;5017459;28;20110;-76
2023/04/13 01:33:02;;;;;;;2.15;0.70;;;;;;;;;;5037274;28;20044;-75
2023/04/13 01:35:29;;;;;;;0.70;0.60;;;;;;;;;;5029193;28;20223;-71
2023/04/13 01:37:57;;;;;;;1.58;0.60;;;;;;;;;;5049344;28;20052;-76
2023/04/13 01:40:25;;;;;;;1.92;0.70;;;;;;;;;;5039413;28;20095;-72
2023/04/13 01:42:52;;;;;;;0.52;0.40;;;;;;;;;;5044219;28;20056;-74
2023/04/13 01:45:22;;;;;;;2.65;0.70;;;;;;;;;;5019643;28;20079;-75
2023/04/13 01:47:54;;;;;;;1.05;0.50;;;;;;;;;;5016001;28;20080;-75
2023/04/13 01:50:27;;;;;;;1.38;0.63;;;;;;;;;;5037268;28;20054;-73
2023/04/13 01:52:56;;;;;;;2.47;0.68;;;;;;;;;;5017493;28;20057;-76
2023/04/13 01:55:23;;;;;;;0.95;0.40;;;;;;;;;;5011732;28;20216;-71
2023/04/13 01:57:52;;;;;;;4.35;0.80;;;;;;;;;;5012453;28;20056;-74
2023/04/13 02:00:19;;;;;;;0.47;0.40;;;;;;;;;;5020840;28;20084;-74
2023/04/13 02:02:47;;;;;;;1.75;0.60;;;;;;;;;;5038524;28;20041;-75
2023/04/13 02:05:14;;;;;;;1.95;0.70;;;;;;;;;;4990109;28;20052;-73
2023/04/13 02:07:43;;;;;;;0.40;0.35;;;;;;;;;;5025481;28;20057;-74
2023/04/13 02:10:10;;;;;;;;;;;;;;;;;;5016170;28;20049;-72
2023/04/13 02:12:37;;;;;;;1.25;0.47;;;;;;;;;;5007544;28;20015;-73
2023/04/13 02:15:04;;;;;;;2.47;0.50;;;;;;;;;;5030774;28;20135;-74
2023/04/13 02:17:32;;;;;;;0.53;0.50;;;;;;;;;;5027344;28;20056;-73
2023/04/13 02:20:00;;;;;;;1.05;0.55;;;;;;;;;;5014562;28;20397;-72
2023/04/13 02:22:26;;;;;;;4.20;0.60;;;;;;;;;;5009490;28;20053;-74
2023/04/13 02:24:55;;;;;;;1.90;0.60;;;;;;;;;;5006570;28;20060;-71
2023/04/13 02:27:23;;;;;;;3.22;0.68;;;;;;;;;;5006057;28;20060;-72
2023/04/13 02:29:51;;;;;;;1.67;0.63;;;;;;;;;;5034576;28;20057;-75
2023/04/13 02:32:18;;;;;;;1.75;0.63;;;;;;;;;;5028562;28;20057;-74
2023/04/13 02:34:46;;;;;;;1.13;0.40;;;;;;;;;;5001379;28;20060;-73
2023/04/13 02:37:14;;;;;;;1.52;0.45;;;;;;;;;;5028365;28;20053;-73
2023/04/13 02:39:41;;;;;;;2.22;0.60;;;;;;;;;;5013684;28;20065;-75
2023/04/13 02:42:09;;;;;;;0.88;0.40;;;;;;;;;;5014120;28;20059;-71
2023/04/13 02:44:37;;;;;;;1.02;0.43;;;;;;;;;;5001438;28;20049;-75
2023/04/13 02:47:05;;;;;;;0.77;0.55;;;;;;;;;;5035015;28;20077;-70
2023/04/13 02:49:31;;;;;;;1.35;0.60;;;;;;;;;;5007010;28;20049;-72
2023/04/13 02:51:58;;;;;;;0.55;0.30;;;;;;;;;;5014266;28;20057;-72
2023/04/13 02:54:27;;;;;;;0.77;0.57;;;;;;;;;;5003660;28;20121;-73
2023/04/13 02:56:54;;;;;;;1.38;0.57;;;;;;;;;;5009326;28;20068;-72
2023/04/13 02:59:21;;;;;;;3.28;0.70;;;;;;;;;;5010548;28;20065;-71
2023/04/13 03:01:48;;;;;;;0.90;0.60;;;;;;;;;;5035163;28;20061;-73
2023/04/13 03:04:15;;;;;;;1.50;0.60;;;;;;;;;;5018544;28;20093;-71
2023/04/13 03:06:43;;;;;;;3.10;0.60;;;;;;;;;;5036804;28;20063;-72
2023/04/13 03:09:10;;;;;;;2.30;0.63;;;;;;;;;;5018862;28;20059;-74
2023/04/13 03:11:38;;;;;;;1.17;0.57;;;;;;;;;;5020688;28;20060;-73
2023/04/13 03:14:06;;;;;;;1.95;0.60;;;;;;;;;;5025144;28;20064;-74
2023/04/13 03:16:33;;;;;;;1.10;0.50;;;;;;;;;;5007176;28;20061;-72
2023/04/13 03:19:00;;;;;;;1.38;0.60;;;;;;;;;;5010498;28;20061;-71
2023/04/13 03:21:26;;;;;;;2.70;0.80;;;;;;;;;;5014426;28;20192;-71
2023/04/13 03:23:53;;;;;;;0.47;0.45;;;;;;;;;;5014035;28;20049;-72
2023/04/13 03:26:20;;;;;;;1.40;0.73;;;;;;;;;;5006017;28;20050;-73
2023/04/13 03:28:48;;;;;;;0.85;0.47;;;;;;;;;;5006223;28;20064;-71
2023/04/13 03:31:16;;;;;;;1.23;0.50;;;;;;;;;;5010868;28;20049;-73
2023/04/13 03:33:43;;;;;;;0.77;0.57;;;;;;;;;;5013165;28;20061;-73
2023/04/13 03:36:10;;;;;;;1.90;0.60;;;;;;;;;;5007604;28;20053;-75
2023/04/13 03:38:36;;;;;;;0.68;0.60;;;;;;;;;;5006843;28;20057;-72
2023/04/13 03:41:03;;;;;;;1.73;0.77;;;;;;;;;;5023067;28;20061;-74
2023/04/13 03:43:30;;;;;;;0.80;0.50;;;;;;;;;;5043556;28;20152;-71
2023/04/13 03:45:59;;;;;;;0.80;0.60;;;;;;;;;;5001318;28;20060;-73
2023/04/13 03:48:26;;;;;;;1.67;0.75;;;;;;;;;;5014987;28;20065;-72
2023/04/13 03:50:53;;;;;;;2.13;0.80;;;;;;;;;;5009205;28;20136;-70
2023/04/13 03:53:20;;;;;;;1.70;0.52;;;;;;;;;;5034233;28;20057;-74
2023/04/13 03:55:47;;;;;;;1.52;0.60;;;;;;;;;;5004981;28;20040;-75
2023/04/13 03:58:14;;;;;;;2.85;0.60;;;;;;;;;;5036272;28;20052;-76
2023/04/13 04:00:41;;;;;;;1.57;0.80;;;;;;;;;;5020922;28;20120;-74
2023/04/13 04:03:10;;;;;;;3.55;0.70;;;;;;;;;;5020622;28;20096;-74
2023/04/13 04:05:38;;;;;;;3.28;0.40;;;;;;;;;;5013616;28;20156;-74
2023/04/13 04:08:05;;;;;;;;;;;;;;;;;;5019825;28;20053;-72
2023/04/13 04:10:32;;;;;;;1.38;0.55;;;;;;;;;;5031891;28;19930;-73
2023/04/13 04:12:58;;;;;;;0.85;0.55;;;;;;;;;;5022412;28;20130;-72
2023/04/13 04:15:25;;;;;;;0.75;0.60;;;;;;;;;;5034516;28;20060;-73
2023/04/13 04:17:52;;;;;;;4.38;0.80;;;;;;;;;;5017854;28;20053;-76
2023/04/13 04:20:20;;;;;;;0.50;0.40;;;;;;;;;;5016653;28;20132;-73
2023/04/13 04:22:51;;;;;;;0.90;0.50;;;;;;;;;;5008762;28;21188;-71
2023/04/13 04:25:21;;;;;;;2.25;0.77;;;;;;;;;;5013282;28;20049;-71
2023/04/13 04:27:48;;;;;;;1.83;0.80;;;;;;;;;;5018631;28;20054;-71
2023/04/13 04:30:17;;;;;;;2.80;0.63;;;;;;;;;;5016683;28;20313;-72
2023/04/13 04:32:44;;;;;;;0.90;0.50;;;;;;;;;;5016518;28;20050;-74
2023/04/13 04:35:11;;;;;;;4.43;0.57;;;;;;;;;;5012373;28;20057;-70
2023/04/13 04:37:41;;;;;;;2.38;0.73;;;;;;;;;;5013219;28;20053;-72
2023/04/13 04:40:10;;;;;;;1.38;0.60;;;;;;;;;;5016884;28;20067;-72
2023/04/13 04:42:37;;;;;;;;;;;;;;;;;;5002864;28;20052;-73
2023/04/13 04:45:04;;;;;;;;;;;;;;;;;;5033753;28;19952;-71
2023/04/13 04:47:31;;;;;;;;;;;;;;;;;;4977785;28;19936;-73
2023/04/13 04:49:58;;;;;;;;;;;;;;;;;;5013496;28;19931;-72
2023/04/13 04:52:25;;;;;;;;;;;;;;;;;;5013254;28;19932;-71
2023/04/13 04:54:51;;;;;;;;;;;;;;;;;;4997626;28;19929;-74
2023/04/13 04:57:20;;;;;;;;;;;;;;;;;;5025710;28;19935;-72
2023/04/13 04:59:48;;;;;;;;;;;;;;;;;;5015889;28;19929;-75
2023/04/13 05:02:14;;;;;;;;;;;;;;;;;;5019495;28;20039;-72
2023/04/13 05:04:41;;;;;;;;;;;;;;;;;;5005040;28;19921;-73
2023/04/13 05:07:09;;;;;;;;;;;;;;;;;;5022708;28;19925;-74
2023/04/13 05:09:36;;;;;;;;;;;;;;;;;;5017032;28;19925;-72
2023/04/13 05:12:05;;;;;;;;;;;;;;;;;;5022527;28;19968;-71
2023/04/13 05:14:32;;;;;;;;;;;;;;;;;;4997683;28;19952;-74
2023/04/13 05:16:59;;;;;;;;;;;;;;;;;;5022625;28;19925;-71
2023/04/13 05:19:26;;;;;;;;;;;;;;;;;;5023324;28;19935;-74
2023/04/13 05:21:52;;;;;;;;;;;;;;;;;;5026452;28;19925;-72
2023/04/13 05:24:19;;;;;;;;;;;;;;;;;;5001758;28;19992;-71
2023/04/13 05:26:46;;;;;;;;;;;;;;;;;;5012226;28;19932;-74
2023/04/13 05:29:13;;;;;;;;;;;;;;;;;;5013561;28;19928;-72
2023/04/13 05:31:40;;;;;;;;;;;;;;;;;;5015820;28;19920;-72
2023/04/13 05:34:08;;;;;;;;;;;;;;;;;;4983372;28;19921;-73
2023/04/13 05:36:40;;;;;;;;;;;;;;;;;;5002112;28;19932;-73
2023/04/13 05:39:07;;;;;;;;;;;;;;;;;;5008751;28;19935;-71
2023/04/13 05:41:33;;;;;;;;;;;;;;;;;;5012925;28;19928;-73
2023/04/13 05:44:03;;;;;;;;;;;;;;;;;;5020832;28;19935;-72
2023/04/13 05:46:29;;;;;;;;;;;;;;;;;;4977854;28;19925;-74
2023/04/13 05:48:58;;;;;;;;;;;;;;;;;;5007050;28;19935;-72
2023/04/13 05:51:29;;;;;;;;;;;;;;;;;;5013157;28;19925;-72
2023/04/13 05:53:56;;;;;;;;;;;;;;;;;;5008658;28;19924;-71
2023/04/13 05:56:29;;;;;;;;;;;;;;;;;;4998777;28;19937;-71
2023/04/13 05:58:59;;;;;;;;;;;;;;;;;;5020473;28;19925;-71
2023/04/13 06:01:28;;;;;;;;;;;;;;;;;;5016808;28;19930;-74
2023/04/13 06:03:54;;;;;;;;;;;;;;;;;;5036049;28;19925;-71
2023/04/13 06:06:29;;;;;;;;;;;;;;;;;;5009546;28;19983;-75
2023/04/13 06:08:55;;;;;;;;;;;;;;;;;;5027991;28;19924;-73
2023/04/13 06:11:23;;;;;;;;;;;;;;;;;;5015763;28;19924;-74
2023/04/13 06:13:50;;;;;;;;;;;;;;;;;;5009189;28;20000;-73
2023/04/13 06:16:16;;;;;;;;;;;;;;;;;;4983179;28;19925;-74
2023/04/13 06:18:45;;;;;;;;;;;;;;;;;;5013058;28;19929;-71
2023/04/13 06:21:12;;;;;;;;;;;;;;;;;;5017994;28;20027;-73
2023/04/13 06:23:39;;;;;;;;;;;;;;;;;;5010112;28;19931;-72
2023/04/13 06:26:06;;;;;;;;;;;;;;;;;;5012462;28;19951;-71
2023/04/13 06:28:32;;;;;;;;;;;;;;;;;;5005609;28;19925;-73
2023/04/13 06:31:11;;;;;;;;;;;;;;;;;;5023329;28;19957;-72
2023/04/13 06:33:37;;;;;;;;;;;;;;;;;;5030980;28;19924;-74
2023/04/13 06:36:08;;;;;;;;;;;;;;;;;;5013306;28;19931;-73
2023/04/13 06:38:38;;;;;;;;;;;;;;;;;;5022553;28;19931;-73
2023/04/13 06:41:04;;;;;;;;;;;;;;;;;;5028245;28;19924;-72
2023/04/13 06:43:33;;;;;;;;;;;;;;;;;;5018931;28;19928;-71
2023/04/13 06:46:01;;;;;;;;;;;;;;;;;;5004191;28;19966;-72
2023/04/13 06:48:30;;;;;;;;;;;;;;;;;;5012606;28;19924;-73
2023/04/13 06:50:57;;;;;;;;;;;;;;;;;;5006733;28;19925;-72
2023/04/13 06:53:24;;;;;;;;;;;;;;;;;;5005346;28;19925;-73
2023/04/13 06:55:51;;;;;;;;;;;;;;;;;;5012828;28;19963;-71
2023/04/13 06:58:20;;;;;;;;;;;;;;;;;;5012838;28;19925;-73
2023/04/13 07:00:52;;;;;;;;;;;;;;;;;;5019484;28;20012;-73
2023/04/13 07:03:19;;;;;;;;;;;;;;;;;;5013366;28;19932;-74
2023/04/13 07:05:49;;;;;;;;;;;;;;;;;;5006915;28;19924;-72
2023/04/13 07:08:18;;;;;;;;;;;;;;;;;;5020743;28;20001;-73
2023/04/13 07:10:46;;;;;;;;;;;;;;;;;;5010415;28;19931;-75
2023/04/13 07:13:14;;;;;;;;;;;;;;;;;;5036557;28;19924;-75
2023/04/13 07:15:41;;;;;;;;;;;;;;;;;;4986150;28;19925;-73
2023/04/13 07:18:10;;;;;;;;;;;;;;;;;;5022993;28;19924;-74
2023/04/13 07:20:40;;;;;;;;;;;;;;;;;;5015404;28;19956;-75
2023/04/13 07:23:06;;;;;;;;;;;;;;;;;;5021483;28;19921;-73
2023/04/13 07:25:33;;;;;;;;;;;;;;;;;;4982497;28;20209;-71
2023/04/13 07:28:00;;;;;;;;;;;;;;;;;;5004137;28;19932;-72
2023/04/13 07:30:28;;;;;;;;;;;;;;;;;;5020911;28;19928;-73
2023/04/13 07:32:57;;;;;;;;;;;;;;;;;;5052110;28;19978;-73
2023/04/13 07:35:26;;;;;;;;;;;;;;;;;;5001354;28;19921;-72
2023/04/13 07:37:57;;;;;;;;;;;;;;;;;;5035933;28;19924;-72
2023/04/13 07:40:26;;;;;;;;;;;;;;;;;;5020130;28;20027;-75
2023/04/13 07:42:52;;;;;;;;;;;;;;;;;;5035672;28;19924;-72
2023/04/13 07:45:20;;;;;;;;;;;;;;;;;;5018152;28;19925;-76
2023/04/13 07:47:52;;;;;;;;;;;;;;;;;;5006810;28;19932;-72
2023/04/13 07:50:22;;;;;;;;;;;;;;;;;;5014151;28;19925;-74
2023/04/13 07:52:50;;;;;;;;;;;;;;;;;;5012283;28;19929;-74
2023/04/13 07:55:17;;;;;;;;;;;;;;;;;;5010637;28;19924;-74
2023/04/13 07:57:43;;;;;;;;;;;;;;;;;;5017946;28;19924;-73
2023/04/13 08:00:19;;;;;;;;;;;;;;;;;;5015448;28;19931;-74
2023/04/13 08:02:46;;;;;;;;;;;;;;;;;;5026371;28;19924;-75
2023/04/13 08:07:57;;;;;;;;;;;;;;;;;;5015807;28;19924;-73
2023/04/13 08:10:28;;;;;;;;;;;;;;;;;;5034413;28;19935;-74
2023/04/13 08:12:55;;;;;;;;;;;;;;;;;;5024335;28;19928;-74
2023/04/13 08:15:23;;;;;;;;;;;;;;;;;;5003156;28;19925;-77
2023/04/13 08:17:55;;;;;;;;;;;;;;;;;;5000537;28;19960;-75
2023/04/13 08:20:27;;;;;;;;;;;;;;;;;;4993024;28;19932;-76
2023/04/13 08:23:03;;;;;;;;;;;;;;;;;;5039909;28;19932;-74
2023/04/13 08:25:30;;;;;;;;;;;;;;;;;;4982177;28;19993;-77
2023/04/13 08:27:57;;;;;;;;;;;;;;;;;;5032725;28;20001;-75
2023/04/13 08:30:29;;;;;;;;;;;;;;;;;;5062542;28;19932;-77
2023/04/13 08:33:01;;;;;;;;;;;;;;;;;;5014145;28;19936;-74
2023/04/13 08:35:28;;;;;;;;;;;;;;;;;;4994040;28;20023;-75
2023/04/13 08:37:54;;;;;;;;;;;;;;;;;;5017618;28;19944;-74
2023/04/13 08:40:26;;;;;;;;;;;;;;;;;;5023588;28;19952;-74
2023/04/13 08:42:54;;;;;;;;;;;;;;;;;;5009430;28;19987;-74
2023/04/13 08:45:20;;;;;;;;;;;;;;;;;;4989272;28;19924;-76
2023/04/13 08:47:50;;;;;;;;;;;;;;;;;;5006468;28;19933;-75
2023/04/13 08:50:16;;;;;;;;;;;;;;;;;;5020055;28;20098;-73
2023/04/13 08:52:50;;;;;;;;;;;;;;;;;;5000894;28;19924;-73
2023/04/13 08:55:16;;;;;;;;;;;;;;;;;;4990728;28;19921;-76
2023/04/13 08:57:50;;;;;;;;;;;;;;;;;;5006611;28;19924;-75
2023/04/13 09:00:18;;;;;;;;;;;;;;;;;;5021975;28;19921;-72
2023/04/13 09:02:46;;;;;;;;;;;;;;;;;;5027928;28;20001;-72
2023/04/13 09:05:14;;;;;;;;;;;;;;;;;;5002156;28;19924;-74
2023/04/13 09:07:46;;;;;;;;;;;;;;;;;;5022949;28;19929;-74
2023/04/13 09:10:15;;;;;;;;;;;;;;;;;;5021767;28;19924;-74
2023/04/13 09:12:43;;;;;;;;;;;;;;;;;;5019597;28;19927;-75
2023/04/13 09:15:19;;;;;;;;;;;;;;;;;;;;;
2023/04/13 09:17:46;;;;;;;;;;;;;;;;;;4999853;28;20026;-72
2023/04/13 09:20:13;;;;;;;;;;;;;;;;;;5015771;28;19924;-73
2023/04/13 09:22:42;;;;;;;;;;;;;;;;;;5011554;28;19991;-72
2023/04/13 09:25:13;;;;;;;;;;;;;;;;;;4968399;28;19929;-75
2023/04/13 09:27:45;;;;;;;;;;;;;;;;;;5006401;28;19929;-75
2023/04/13 09:30:15;;;;;;;;;;;;;;;;;;5038261;28;20031;-73
2023/04/13 09:32:42;;;;;;;;;;;;;;;;;;5020359;28;19991;-73
2023/04/13 09:35:12;;;;;;;;;;;;;;;;;;4985606;28;19933;-77
2023/04/13 09:37:40;;;;;;;;;;;;;;;;;;4987296;28;19929;-77
2023/04/13 09:40:07;;;;;;;;;;;;;;;;;;4991097;28;19958;-73
2023/04/13 09:42:44;;;;;;;;;;;;;;;;;;5019547;28;19928;-77
2023/04/13 09:45:13;;;;;;;;;;;;;;;;;;4984300;28;19959;-73
2023/04/13 09:47:41;;;;;;;;;;;;;;;;;;5030100;28;19920;-75
2023/04/13 09:50:07;;;;;;;;;;;;;;;;;;5033135;28;19983;-72
2023/04/13 09:52:34;;;;;;;;;;;;;;;;;;5012395;28;19924;-75
2023/04/13 09:55:01;;;;;;;;;;;;;;;;;;4993993;28;19925;-74
2023/04/13 09:57:28;;;;;;;;;;;;;;;;;;5008229;28;19960;-75
2023/04/13 09:59:59;;;;;;;;;;;;;;;;;;5006273;28;19929;-73
2023/04/13 10:02:36;;;;;;;;;;;;;;;;;;5054542;28;19924;-75
2023/04/13 10:05:02;;;;;;;;;;;;;;;;;;5024169;28;20024;-73
2023/04/13 10:07:35;;;;;;;;;;;;;;;;;;5011982;28;19933;-75
2023/04/13 10:10:11;;;;;;;;;;;;;;;;;;5006332;28;19995;-72
2023/04/13 10:12:38;;;;;;;;;;;;;;;;;;5021298;28;19924;-71
2023/04/13 10:15:11;;;;;;;;;;;;;;;;;;4998427;28;19955;-72
2023/04/13 10:17:41;;;;;;;;;;;;;;;;;;5015677;28;20030;-72
2023/04/13 10:20:14;;;;;;;;;;;;;;;;;;5036785;28;19925;-75
2023/04/13 10:22:40;;;;;;;;;;;;;;;;;;5011862;28;19925;-76
2023/04/13 10:25:14;;;;;;;;;;;;;;;;;;5004094;28;19924;-71
2023/04/13 10:27:43;;;;;;;;;;;;;;;;;;5031492;28;19923;-74
2023/04/13 10:30:10;;;;;;;;;;;;;;;;;;5026438;28;19924;-73
2023/04/13 10:32:37;;;;;;;;;;;;;;;;;;4998855;28;20140;-72
2023/04/13 10:35:04;;;;;;;;;;;;;;;;;;5020016;28;19974;-73
2023/04/13 10:37:30;;;;;;;;;;;;;;;;;;5035712;28;19924;-72
2023/04/13 10:39:57;;;;;;;;;;;;;;;;;;5021325;28;19925;-73
2023/04/13 10:42:26;;;;;;;;;;;;;;;;;;5008156;28;19928;-74
2023/04/13 10:44:53;;;;;;;;;;;;;;;;;;5014239;28;19928;-73
2023/04/13 10:47:20;;;;;;;;;;;;;;;;;;5001947;28;19924;-75
2023/04/13 10:49:55;;;;;;;;;;;;;;;;;;5021543;28;19968;-71
2023/04/13 10:52:28;;;;;;;;;;;;;;;;;;5015757;28;19956;-74
2023/04/13 10:55:04;;;;;;;;;;;;;;;;;;5019695;28;20015;-74
2023/04/13 10:57:41;;;;;;;;;;;;;;;;;;4992783;28;19925;-71
2023/04/13 11:00:15;;;;;;;;;;;;;;;;;;5025421;28;19924;-71
2023/04/13 11:02:44;;;;;;;;;;;;;;;;;;5003272;28;19959;-76
2023/04/13 11:05:11;;;;;;;;;;;;;;;;;;4998735;28;19933;-75
2023/04/13 11:07:38;;;;;;;;;;;;;;;;;;5000094;28;19921;-71
2023/04/13 11:10:14;;;;;;;;;;;;;;;;;;5002001;28;19959;-74
2023/04/13 11:12:42;;;;;;;;;;;;;;;;;;5014526;28;19925;-74
2023/04/13 11:15:12;;;;;;;;;;;;;;;;;;4992428;28;19930;-72
2023/04/13 11:17:38;;;;;;;;;;;;;;;;;;4995874;28;19947;-72
2023/04/13 11:20:14;;;;;;;;;;;;;;;;;;5023641;28;20031;-75
2023/04/13 11:25:23;;;;;;;;;;;;;;;;;;4979684;28;19962;-72
2023/04/13 11:28:01;;;;;;;;;;;;;;;;;;;;;
2023/04/13 11:30:28;;;;;;;;;;;;;;;;;;4977786;28;19976;-72
2023/04/13 11:35:55;;;;;;;;;;;;;;;;;;4912894;28;19930;-71
2023/04/13 11:38:38;;;;;;;;;;;;;;;;;;5000812;28;19931;-74
2023/04/13 11:41:09;;;;;;;;;;;;;;;;;;5025004;28;20038;-74
2023/04/13 11:46:42;;;;;;;;;;;;;;;;;;;;;
2023/04/13 11:49:11;;;;;;;;;;;;;;;;;;4932312;28;19953;-71
2023/04/13 11:51:42;;;;;;;;;;;;;;;;;;4922799;28;19926;-71
2023/04/13 11:54:12;;;;;;;;;;;;;;;;;;4955375;28;19936;-73
2023/04/13 11:56:42;;;;;;;;;;;;;;;;;;4938430;28;19929;-74
2023/04/13 11:59:23;;;;;;;;;;;;;;;;;;5021159;28;19925;-72
2023/04/13 12:01:50;;;;;;;;;;;;;;;;;;5019218;28;19925;-74
2023/04/13 12:06:59;;;;;;;;;;;;;;;;;;4919400;28;19926;-71
2023/04/13 12:09:33;;;;;;;;;;;;;;;;;;4982419;28;19924;-75
2023/04/13 12:12:04;;;;;;;;;;;;;;;;;;5047167;28;19925;-73
2023/04/13 12:14:33;;;;;;;;;;;;;;;;;;5028106;28;19932;-72
2023/04/13 12:17:02;;;;;;;;;;;;;;;;;;5009239;28;19930;-74
2023/04/13 12:19:30;;;;;;;;;;;;;;;;;;5020961;28;19976;-74
2023/04/13 12:21:57;;;;;;;;;;;;;;;;;;4980041;28;19933;-73
2023/04/13 12:24:24;;;;;;;;;;;;;;;;;;4963815;28;19933;-73
2023/04/13 12:26:54;;;;;;;;;;;;;;;;;;4938216;28;19929;-73
2023/04/13 12:29:20;;;;;;;;;;;;;;;;;;4972077;28;19925;-72
2023/04/13 12:31:47;;;;;;;;;;;;;;;;;;5034705;28;19924;-74
2023/04/13 12:34:19;;;;;;;;;;;;;;;;;;5016702;28;20137;-72
2023/04/13 12:36:50;;;;;;;;;;;;;;;;;;4973528;28;19925;-74
2023/04/13 12:39:18;;;;;;;;;;;;;;;;;;4977836;28;19937;-72
2023/04/13 12:41:44;;;;;;;;;;;;;;;;;;5010280;28;19924;-71
2023/04/13 12:44:13;;;;;;;;;;;;;;;;;;5021253;28;19953;-74
2023/04/13 12:48:19;;;;;;;;;;;;;;;;;;4983397;27;19939;-71
2023/04/13 12:50:54;;;;;;;;;;;;;;;;;;4924026;28;19941;-72
2023/04/13 12:53:26;;;;;;;;;;;;;;;;;;4937538;28;19937;-72
2023/04/13 12:59:00;;;;;;;;;;;;;;;;;;5057749;28;19935;-72
2023/04/13 13:01:28;;;;;;;;;;;;;;;;;;4983811;28;19965;-71
2023/04/13 13:03:58;;;;;;;;;;;;;;;;;;4975998;28;19958;-73
2023/04/13 13:06:27;;;;;;;;;;;;;;;;;;4969958;28;19929;-74
2023/04/13 13:08:54;;;;;;;;;;;;;;;;;;5005308;28;19991;-75
2023/04/13 13:11:23;;;;;;;;;;;;;;;;;;4989341;28;19925;-75
2023/04/13 13:13:50;;;;;;;;;;;;;;;;;;4992108;28;19929;-72
2023/04/13 13:16:18;;;;;;;;;;;;;;;;;;4987376;28;19934;-71
2023/04/13 13:18:46;;;;;;;;;;;;;;;;;;4975350;28;20004;-71
2023/04/13 13:21:14;;;;;;;;;;;;;;;;;;4997351;28;19929;-72
2023/04/13 13:23:44;;;;;;;;;;;;;;;;;;4984740;28;20020;-72
2023/04/13 13:26:10;;;;;;;;;;;;;;;;;;4927938;28;20062;-72
2023/04/13 13:28:37;;;;;;;;;;;;;;;;;;4965673;28;19987;-71
2023/04/13 13:31:09;;;;;;;;;;;;;;;;;;5003048;28;19979;-74
2023/04/13 13:33:35;;;;;;;;;;;;;;;;;;4966617;28;19936;-73
2023/04/13 13:36:02;;;;;;;;;;;;;;;;;;4959740;28;19939;-71
2023/04/13 13:38:33;;;;;;;;;;;;;;;;;;4977740;28;19934;-72
2023/04/13 13:40:59;;;;;;;;;;;;;;;;;;4998501;28;19988;-74
2023/04/13 13:43:28;;;;;;;;;;;;;;;;;;4981168;28;19930;-75
2023/04/13 13:45:56;;;;;;;;;;;;;;;;;;4979227;28;19948;-72
2023/04/13 13:48:28;;;;;;;;;;;;;;;;;;4997266;28;19975;-74
2023/04/13 13:50:57;;;;;;;;;;;;;;;;;;4997063;28;20036;-71
2023/04/13 13:53:27;;;;;;;;;;;;;;;;;;5012749;28;19935;-72
2023/04/13 13:55:55;;;;;;;;;;;;;;;;;;4993979;28;19929;-72
2023/04/13 13:58:32;;;;;;;;;;;;;;;;;;4995974;28;19933;-71
2023/04/13 14:00:58;;;;;;;;;;;;;;;;;;4996532;28;19934;-71
2023/04/13 14:03:25;;;;;;;;;;;;;;;;;;4978906;28;19929;-72
2023/04/13 14:05:52;;;;;;;;;;;;;;;;;;4950763;28;19948;-71
2023/04/13 14:08:20;;;;;;;;;;;;;;;;;;4989813;28;19956;-74
2023/04/13 14:10:48;;;;;;;;;;;;;;;;;;4943833;28;19930;-74
2023/04/13 14:13:15;;;;;;;;;;;;;;;;;;4973771;28;19930;-71
2023/04/13 14:15:42;;;;;;;;;;;;;;;;;;4950374;28;19963;-71
2023/04/13 14:18:14;;;;;;;;;;;;;;;;;;4906815;28;19965;-73
2023/04/13 14:20:43;;;;;;;;;;;;;;;;;;4905567;28;19988;-74
2023/04/13 14:23:15;;;;;;;;;;;;;;;;;;4899078;28;19976;-74
2023/04/13 14:25:44;;;;;;;;;;;;;;;;;;4892364;28;19935;-74
2023/04/13 14:28:13;;;;;;;;;;;;;;;;;;4865506;29;19931;-71
2023/04/13 14:30:46;;;;;;;;;;;;;;;;;;4902189;28;19930;-71
2023/04/13 14:33:28;;;;;;;;;;;;;;;;;;4933585;28;19934;-72
2023/04/13 14:35:56;;;;;;;;;;;;;;;;;;4920888;28;19926;-72
2023/04/13 14:38:29;;;;;;;;;;;;;;;;;;4877977;29;19931;-73
2023/04/13 14:41:02;;;;;;;;;;;;;;;;;;4954266;28;19936;-72
2023/04/13 14:43:33;;;;;;;;;;;;;;;;;;4999085;28;19952;-72
2023/04/13 14:45:59;;;;;;;;;;;;;;;;;;4960297;28;19934;-72
2023/04/13 14:48:42;;;;;;;;;;;;;;;;;;4905400;28;19985;-71
2023/04/13 14:51:13;;;;;;;;;;;;;;;;;;4964980;28;19930;-72
2023/04/13 14:53:39;;;;;;;;;;;;;;;;;;4953505;28;19930;-72
2023/04/13 14:56:09;;;;;;;;;;;;;;;;;;4934223;28;19934;-71
2023/04/13 14:58:51;;;;;;;;;;;;;;;;;;4924512;28;19996;-70
2023/04/13 15:01:20;;;;;;;;;;;;;;;;;;4959516;28;19929;-71
2023/04/13 15:03:49;;;;;;;;;;;;;;;;;;4966037;28;19969;-73
2023/04/13 15:06:26;;;;;;;;;;;;;;;;;;4973359;28;19976;-74
2023/04/13 15:08:59;;;;;;;;;;;;;;;;;;4933001;28;19933;-70
2023/04/13 15:11:35;;;;;;;;;;;;;;;;;;4948559;28;19961;-69
2023/04/13 15:14:03;;;;;;;;;;;;;;;;;;4953261;28;20074;-74
2023/04/13 15:16:29;;;;;;;;;;;;;;;;;;4947716;28;20002;-70
2023/04/13 15:18:57;;;;;;;;;;;;;;;;;;4930263;28;19930;-73
2023/04/13 15:21:26;;;;;;;;;;;;;;;;;;4953853;28;19992;-72
2023/04/13 15:23:56;;;;;;;;;;;;;;;;;;4969419;28;20125;-72
2023/04/13 15:26:25;;;;;;;;;;;;;;;;;;4983608;28;19983;-73
2023/04/13 15:28:51;;;;;;;;;;;;;;;;;;4960327;28;20039;-71
2023/04/13 15:31:18;;;;;;;;;;;;;;;;;;4984441;28;19936;-73
2023/04/13 15:33:47;;;;;;;;;;;;;;;;;;4981975;28;20009;-72
2023/04/13 15:36:14;;;;;;;;;;;;;;;;;;4995719;28;20000;-72
2023/04/13 15:38:40;;;;;;;;;;;;;;;;;;4980599;28;19929;-70
2023/04/13 15:41:08;;;;;;;;;;;;;;;;;;4987241;28;19929;-72
2023/04/13 15:43:35;;;;;;;;;;;;;;;;;;4985055;28;19929;-71
2023/04/13 15:48:49;;;;;;;;;;;;;;;;;;4935117;28;19984;-70
2023/04/13 15:51:15;;;;;;;;;;;;;;;;;;4991482;28;20011;-72
2023/04/13 15:53:41;;;;;;;;;;;;;;;;;;4990534;28;19965;-71
2023/04/13 15:56:08;;;;;;;;;;;;;;;;;;4992385;28;20012;-70
2023/04/13 15:58:44;;;;;;;;;;;;;;;;;;4950548;28;20079;-71
2023/04/13 16:01:10;;;;;;;;;;;;;;;;;;4949716;28;20012;-74
2023/04/13 16:03:37;;;;;;;;;;;;;;;;;;4923749;28;19930;-74
2023/04/13 16:06:06;;;;;;;;;;;;;;;;;;4918928;28;20041;-73
2023/04/13 16:11:00;;;;;;;;;;;;;;;;;;4873452;29;19978;-69
2023/04/13 16:15:55;;;;;;;;;;;;;;;;;;4889081;29;20177;-72
2023/04/13 16:18:27;;;;;;;;;;;;;;;;;;4885419;29;19931;-73
2023/04/13 16:20:57;;;;;;;;;;;;;;;;;;4908123;28;19937;-73
2023/04/13 16:23:24;;;;;;;;;;;;;;;;;;4990493;28;19933;-74
2023/04/13 16:25:50;;;;;;;;;;;;;;;;;;4984379;28;19929;-72
2023/04/13 16:28:18;;;;;;;;;;;;;;;;;;4989557;28;19969;-72
2023/04/13 16:30:50;;;;;;;;;;;;;;;;;;4984397;28;20111;-70
2023/04/13 16:33:16;;;;;;;;;;;;;;;;;;4998166;28;19929;-73
2023/04/13 16:35:43;;;;;;;;;;;;;;;;;;4981646;28;19937;-72
2023/04/13 16:38:11;;;;;;;;;;;;;;;;;;4993028;28;19929;-70
2023/04/13 16:40:39;;;;;;;;;;;;;;;;;;4985515;28;19932;-72
2023/04/13 16:43:05;;;;;;;;;;;;;;;;;;4993464;28;20055;-71
2023/04/13 16:45:32;;;;;;;;;;;;;;;;;;4986048;28;19930;-70